Time;durP1;ratioP1;P1;durP2;ratioP2;P2;SDS_P1;SDS_P2;PMS_P1;PMS_P2;Temp;Humidity;BMP_temperature;BMP_pressure;BME280_temperature;BME280_humidity;BME280_pressure;Samples;Min_cycle;Max_cycle;Signal;HPM_P1;HPM_P2
2022/03/04 00:00:49;;;;;;;25.98;13.57;;;;;;;;;;5051811;28;20098;-75
2022/03/04 00:03:15;;;;;;;22.75;13.07;;;;;;;;;;5018659;28;20041;-75
2022/03/04 00:05:42;;;;;;;23.05;13.73;;;;;;;;;;5052952;28;20908;-74
2022/03/04 00:08:08;;;;;;;25.95;13.85;;;;;;;;;;5051886;28;20457;-74
2022/03/04 00:10:35;;;;;;;30.48;16.08;;;;;;;;;;5051648;28;20045;-76
2022/03/04 00:13:01;;;;;;;26.58;14.50;;;;;;;;;;5053110;28;20142;-74
2022/03/04 00:15:27;;;;;;;29.33;13.93;;;;;;;;;;5051595;28;20125;-76
2022/03/04 00:17:53;;;;;;;28.33;14.35;;;;;;;;;;5052873;28;20105;-75
2022/03/04 00:20:20;;;;;;;32.80;15.45;;;;;;;;;;5055503;28;20099;-76
2022/03/04 00:22:46;;;;;;;24.60;14.07;;;;;;;;;;5057661;28;20128;-73
2022/03/04 00:25:12;;;;;;;24.77;13.23;;;;;;;;;;5056729;28;20382;-73
2022/03/04 00:27:39;;;;;;;31.40;15.57;;;;;;;;;;5056903;28;20057;-72
2022/03/04 00:30:06;;;;;;;26.48;14.30;;;;;;;;;;5035054;28;20061;-75
2022/03/04 00:32:32;;;;;;;23.63;12.82;;;;;;;;;;5018574;28;20049;-73
2022/03/04 00:34:58;;;;;;;25.15;13.40;;;;;;;;;;5052412;28;20049;-74
2022/03/04 00:37:24;;;;;;;24.58;13.30;;;;;;;;;;5052419;28;20041;-75
2022/03/04 00:39:50;;;;;;;22.58;13.70;;;;;;;;;;5052373;28;20471;-75
2022/03/04 00:42:17;;;;;;;22.27;13.05;;;;;;;;;;5018178;28;20473;-72
2022/03/04 00:44:43;;;;;;;25.15;13.18;;;;;;;;;;5052654;28;20045;-74
2022/03/04 00:47:09;;;;;;;25.02;13.63;;;;;;;;;;5052364;28;20087;-73
2022/03/04 00:49:35;;;;;;;23.50;13.70;;;;;;;;;;5001951;28;20049;-75
2022/03/04 00:52:02;;;;;;;24.83;14.13;;;;;;;;;;5052283;28;20045;-76
2022/03/04 00:54:28;;;;;;;24.70;13.32;;;;;;;;;;5051080;28;20494;-75
2022/03/04 00:56:54;;;;;;;24.55;12.63;;;;;;;;;;5051428;28;20044;-75
2022/03/04 00:59:20;;;;;;;26.90;13.82;;;;;;;;;;5052244;28;20084;-75
2022/03/04 01:01:46;;;;;;;23.67;13.02;;;;;;;;;;5034547;28;20562;-74
2022/03/04 01:04:12;;;;;;;25.95;14.45;;;;;;;;;;5052212;28;20044;-74
2022/03/04 01:06:39;;;;;;;26.40;14.15;;;;;;;;;;5051066;28;20398;-75
2022/03/04 01:09:05;;;;;;;27.23;14.15;;;;;;;;;;5018137;28;20048;-74
2022/03/04 01:11:32;;;;;;;25.63;13.63;;;;;;;;;;5051422;28;20068;-74
2022/03/04 01:13:58;;;;;;;23.85;13.15;;;;;;;;;;5051161;28;20102;-74
2022/03/04 01:16:24;;;;;;;24.95;13.80;;;;;;;;;;5034365;28;20040;-74
2022/03/04 01:18:51;;;;;;;25.58;13.75;;;;;;;;;;5051021;28;20072;-74
2022/03/04 01:21:17;;;;;;;27.52;14.90;;;;;;;;;;5050733;28;20485;-73
2022/03/04 01:23:43;;;;;;;28.02;15.70;;;;;;;;;;5052273;28;20124;-73
2022/03/04 01:26:09;;;;;;;27.20;14.73;;;;;;;;;;5052131;28;20041;-74
2022/03/04 01:28:36;;;;;;;30.02;14.75;;;;;;;;;;5017564;28;20048;-75
2022/03/04 01:31:02;;;;;;;28.48;14.27;;;;;;;;;;5017732;28;20051;-74
2022/03/04 01:33:28;;;;;;;27.02;15.13;;;;;;;;;;5052012;28;20041;-74
2022/03/04 01:35:54;;;;;;;28.65;14.52;;;;;;;;;;5034211;28;20082;-73
2022/03/04 01:38:20;;;;;;;27.33;15.25;;;;;;;;;;5050793;28;20048;-74
2022/03/04 01:40:47;;;;;;;30.60;16.50;;;;;;;;;;5050848;28;20045;-74
2022/03/04 01:43:13;;;;;;;29.45;15.68;;;;;;;;;;5050915;28;20051;-73
2022/03/04 01:45:39;;;;;;;30.13;15.63;;;;;;;;;;5019130;28;20048;-73
2022/03/04 01:48:05;;;;;;;31.40;15.32;;;;;;;;;;5037822;28;20041;-75
2022/03/04 01:50:31;;;;;;;29.98;16.00;;;;;;;;;;5054311;28;20048;-74
2022/03/04 01:52:57;;;;;;;30.63;15.82;;;;;;;;;;5036933;28;20537;-73
2022/03/04 01:55:23;;;;;;;31.02;16.17;;;;;;;;;;5055448;28;20037;-76
2022/03/04 01:57:49;;;;;;;32.17;15.95;;;;;;;;;;5055194;28;20043;-72
2022/03/04 02:00:16;;;;;;;29.83;16.10;;;;;;;;;;5055293;28;20051;-73
2022/03/04 02:02:43;;;;;;;31.60;16.90;;;;;;;;;;5055083;28;20052;-74
2022/03/04 02:05:13;;;;;;;31.48;16.05;;;;;;;;;;5055026;28;20091;-74
2022/03/04 02:07:39;;;;;;;33.05;16.50;;;;;;;;;;5021126;28;20099;-76
2022/03/04 02:10:05;;;;;;;33.75;17.15;;;;;;;;;;5054982;28;20049;-75
2022/03/04 02:12:31;;;;;;;34.05;17.27;;;;;;;;;;5054241;28;20055;-75
2022/03/04 02:14:57;;;;;;;30.90;16.80;;;;;;;;;;5020878;28;20041;-73
2022/03/04 02:17:23;;;;;;;32.90;16.15;;;;;;;;;;5055030;28;20052;-73
2022/03/04 02:19:53;;;;;;;31.70;16.40;;;;;;;;;;5053808;28;20045;-73
2022/03/04 02:22:19;;;;;;;33.83;17.10;;;;;;;;;;5020626;28;20071;-72
2022/03/04 02:24:45;;;;;;;31.52;16.55;;;;;;;;;;5053979;28;20037;-75
2022/03/04 02:27:11;;;;;;;33.80;16.33;;;;;;;;;;5054729;28;20057;-75
2022/03/04 02:29:38;;;;;;;31.75;16.88;;;;;;;;;;5054663;28;20414;-74
2022/03/04 02:32:04;;;;;;;32.00;17.08;;;;;;;;;;5020331;28;20061;-74
2022/03/04 02:34:30;;;;;;;33.97;17.40;;;;;;;;;;5054743;28;20387;-74
2022/03/04 02:36:57;;;;;;;39.33;18.38;;;;;;;;;;5053633;28;20052;-75
2022/03/04 02:39:23;;;;;;;36.70;18.27;;;;;;;;;;5054575;28;20043;-74
2022/03/04 02:41:49;;;;;;;44.22;19.80;;;;;;;;;;5054354;28;20083;-74
2022/03/04 02:44:15;;;;;;;39.75;20.40;;;;;;;;;;5036743;28;20037;-74
2022/03/04 02:46:41;;;;;;;39.10;19.33;;;;;;;;;;5054122;28;20538;-75
2022/03/04 02:49:09;;;;;;;44.28;19.60;;;;;;;;;;5054435;28;20429;-73
2022/03/04 02:51:35;;;;;;;41.17;21.00;;;;;;;;;;5054566;28;20041;-73
2022/03/04 02:54:01;;;;;;;44.88;22.08;;;;;;;;;;5053436;28;20055;-75
2022/03/04 02:56:27;;;;;;;44.45;21.98;;;;;;;;;;5019611;28;20382;-76
2022/03/04 02:58:53;;;;;;;45.30;22.42;;;;;;;;;;5053657;28;20037;-75
2022/03/04 03:01:19;;;;;;;39.40;19.42;;;;;;;;;;5053875;28;20039;-75
2022/03/04 03:03:45;;;;;;;40.95;21.27;;;;;;;;;;5054145;28;20041;-74
2022/03/04 03:06:11;;;;;;;42.80;21.35;;;;;;;;;;5053247;28;20105;-74
2022/03/04 03:08:37;;;;;;;46.83;24.08;;;;;;;;;;5053828;28;20058;-73
2022/03/04 03:11:04;;;;;;;45.17;22.50;;;;;;;;;;5053931;28;20041;-76
2022/03/04 03:13:30;;;;;;;48.17;22.77;;;;;;;;;;5019678;28;20048;-74
2022/03/04 03:15:56;;;;;;;45.30;23.88;;;;;;;;;;5053875;28;20044;-73
2022/03/04 03:18:22;;;;;;;43.35;24.50;;;;;;;;;;5020100;28;20048;-74
2022/03/04 03:20:48;;;;;;;49.03;24.92;;;;;;;;;;5053759;28;20037;-74
2022/03/04 03:23:14;;;;;;;50.13;24.42;;;;;;;;;;5036131;28;20045;-73
2022/03/04 03:25:40;;;;;;;48.03;24.77;;;;;;;;;;5052809;28;20128;-74
2022/03/04 03:28:07;;;;;;;47.60;24.88;;;;;;;;;;5053932;28;20389;-75
2022/03/04 03:30:33;;;;;;;46.20;24.35;;;;;;;;;;5052459;28;20209;-75
2022/03/04 03:32:59;;;;;;;49.45;26.58;;;;;;;;;;5052661;28;20535;-76
2022/03/04 03:35:25;;;;;;;48.53;23.90;;;;;;;;;;5019494;28;20110;-75
2022/03/04 03:37:51;;;;;;;52.45;26.80;;;;;;;;;;5052198;28;20131;-74
2022/03/04 03:40:18;;;;;;;49.00;26.35;;;;;;;;;;5053419;28;20128;-74
2022/03/04 03:42:44;;;;;;;49.20;25.92;;;;;;;;;;5053116;28;20128;-73
2022/03/04 03:45:11;;;;;;;45.85;25.08;;;;;;;;;;5019306;28;20057;-75
2022/03/04 03:47:38;;;;;;;46.95;26.55;;;;;;;;;;5053199;28;20045;-73
2022/03/04 03:50:05;;;;;;;51.60;27.60;;;;;;;;;;5035584;28;20037;-75
2022/03/04 03:52:31;;;;;;;46.83;26.40;;;;;;;;;;5051976;28;20436;-74
2022/03/04 03:54:58;;;;;;;48.90;26.20;;;;;;;;;;5053156;28;20041;-74
2022/03/04 03:57:25;;;;;;;46.78;25.35;;;;;;;;;;5053030;28;20166;-73
2022/03/04 03:59:51;;;;;;;53.05;27.15;;;;;;;;;;5035388;28;20175;-74
2022/03/04 04:02:17;;;;;;;49.63;26.60;;;;;;;;;;5035276;28;20040;-74
2022/03/04 04:04:44;;;;;;;49.20;26.65;;;;;;;;;;5035266;28;20052;-72
2022/03/04 04:07:11;;;;;;;50.80;27.65;;;;;;;;;;5051953;28;20437;-74
2022/03/04 04:09:37;;;;;;;53.25;27.38;;;;;;;;;;5052441;28;20053;-74
2022/03/04 04:12:04;;;;;;;53.15;28.08;;;;;;;;;;5035141;28;20119;-74
2022/03/04 04:14:30;;;;;;;53.15;28.48;;;;;;;;;;5051695;28;20037;-75
2022/03/04 04:16:56;;;;;;;44.22;24.25;;;;;;;;;;5051849;28;20474;-75
2022/03/04 04:19:22;;;;;;;52.00;27.05;;;;;;;;;;5052485;28;20045;-76
2022/03/04 04:21:49;;;;;;;51.35;26.15;;;;;;;;;;5052602;28;20037;-75
2022/03/04 04:24:16;;;;;;;51.28;26.23;;;;;;;;;;5018593;28;20048;-74
2022/03/04 04:26:42;;;;;;;51.92;27.05;;;;;;;;;;5052204;28;20052;-75
2022/03/04 04:29:08;;;;;;;46.83;24.98;;;;;;;;;;5053013;28;20052;-74
2022/03/04 04:31:35;;;;;;;54.85;27.63;;;;;;;;;;5052716;28;20094;-74
2022/03/04 04:34:01;;;;;;;54.58;27.52;;;;;;;;;;5051606;28;20044;-74
2022/03/04 04:36:28;;;;;;;56.03;26.95;;;;;;;;;;5018511;28;20117;-74
2022/03/04 04:38:54;;;;;;;56.17;27.83;;;;;;;;;;5052530;28;20040;-73
2022/03/04 04:41:20;;;;;;;57.42;28.35;;;;;;;;;;5051142;28;20047;-77
2022/03/04 04:43:46;;;;;;;52.78;27.40;;;;;;;;;;5052456;28;20041;-74
2022/03/04 04:46:12;;;;;;;56.28;28.02;;;;;;;;;;5034923;28;20082;-73
2022/03/04 04:48:39;;;;;;;52.47;27.15;;;;;;;;;;5051416;28;20470;-74
2022/03/04 04:51:05;;;;;;;50.15;26.90;;;;;;;;;;5051232;28;20123;-75
2022/03/04 04:53:32;;;;;;;51.20;26.23;;;;;;;;;;5052213;28;20087;-73
2022/03/04 04:55:58;;;;;;;44.20;23.58;;;;;;;;;;5051047;28;20045;-74
2022/03/04 04:58:25;;;;;;;51.45;26.33;;;;;;;;;;5018067;28;20466;-75
2022/03/04 05:00:53;;;;;;;51.03;25.45;;;;;;;;;;5051329;28;20140;-76
2022/03/04 05:03:20;;;;;;;51.88;26.95;;;;;;;;;;5051145;28;20051;-73
2022/03/04 05:05:47;;;;;;;50.90;26.42;;;;;;;;;;5052051;28;20056;-73
2022/03/04 05:08:13;;;;;;;51.55;26.15;;;;;;;;;;5018244;28;20131;-75
2022/03/04 05:10:39;;;;;;;50.33;25.02;;;;;;;;;;5051211;28;20094;-74
2022/03/04 05:13:05;;;;;;;46.40;27.20;;;;;;;;;;5018483;28;20041;-75
2022/03/04 05:15:31;;;;;;;55.17;27.05;;;;;;;;;;5052370;28;20047;-73
2022/03/04 05:17:57;;;;;;;50.17;26.58;;;;;;;;;;5050925;28;20451;-74
2022/03/04 05:20:24;;;;;;;47.47;24.23;;;;;;;;;;5018993;28;20045;-75
2022/03/04 05:22:50;;;;;;;48.45;25.67;;;;;;;;;;5054667;28;20517;-75
2022/03/04 05:25:16;;;;;;;43.10;24.55;;;;;;;;;;5055913;28;20142;-76
2022/03/04 05:27:42;;;;;;;52.72;26.45;;;;;;;;;;5055821;28;20044;-75
2022/03/04 05:30:08;;;;;;;48.00;26.92;;;;;;;;;;5038387;28;20493;-75
2022/03/04 05:32:35;;;;;;;46.42;23.88;;;;;;;;;;5055766;28;20120;-75
2022/03/04 05:35:01;;;;;;;42.22;23.65;;;;;;;;;;5021570;28;20424;-73
2022/03/04 05:37:27;;;;;;;46.33;25.75;;;;;;;;;;5037829;28;20135;-73
2022/03/04 05:39:53;;;;;;;44.97;25.95;;;;;;;;;;5055686;28;20049;-75
2022/03/04 05:42:19;;;;;;;45.88;25.60;;;;;;;;;;5055615;28;20127;-77
2022/03/04 05:44:45;;;;;;;47.00;25.05;;;;;;;;;;5021588;28;20045;-73
2022/03/04 05:47:11;;;;;;;46.50;23.90;;;;;;;;;;5054527;28;20040;-76
2022/03/04 05:49:38;;;;;;;44.85;24.17;;;;;;;;;;5055749;28;20127;-76
2022/03/04 05:52:05;;;;;;;46.38;25.15;;;;;;;;;;5055440;28;20040;-75
2022/03/04 05:54:31;;;;;;;49.20;26.23;;;;;;;;;;5037673;28;20654;-74
2022/03/04 05:56:57;;;;;;;47.95;25.48;;;;;;;;;;5055624;28;20053;-74
2022/03/04 05:59:23;;;;;;;50.38;24.92;;;;;;;;;;5055215;28;20037;-73
2022/03/04 06:01:49;;;;;;;48.95;24.50;;;;;;;;;;5054109;28;20052;-75
2022/03/04 06:04:15;;;;;;;48.15;25.58;;;;;;;;;;5021101;28;20183;-74
2022/03/04 06:06:41;;;;;;;46.58;25.02;;;;;;;;;;5054103;28;20374;-75
2022/03/04 06:09:07;;;;;;;49.65;26.40;;;;;;;;;;5037327;28;20106;-74
2022/03/04 06:11:33;;;;;;;48.67;25.83;;;;;;;;;;5053933;28;20123;-73
2022/03/04 06:13:59;;;;;;;52.45;26.00;;;;;;;;;;5037164;28;20390;-74
2022/03/04 06:16:26;;;;;;;48.47;26.33;;;;;;;;;;5054131;28;20099;-73
2022/03/04 06:18:52;;;;;;;43.78;24.58;;;;;;;;;;5019906;28;20132;-77
2022/03/04 06:21:19;;;;;;;46.60;25.17;;;;;;;;;;5054379;28;20080;-76
2022/03/04 06:23:45;;;;;;;47.92;25.83;;;;;;;;;;5053917;28;20045;-74
2022/03/04 06:26:11;;;;;;;45.97;25.23;;;;;;;;;;5054585;28;20084;-75
2022/03/04 06:28:37;;;;;;;47.10;25.50;;;;;;;;;;5054188;28;20122;-74
2022/03/04 06:31:03;;;;;;;50.90;26.48;;;;;;;;;;5036773;28;20084;-74
2022/03/04 06:33:30;;;;;;;50.63;27.65;;;;;;;;;;5036955;28;20041;-74
2022/03/04 06:35:56;;;;;;;51.85;25.88;;;;;;;;;;5053354;28;20053;-75
2022/03/04 06:38:23;;;;;;;54.92;27.42;;;;;;;;;;5055213;28;20049;-74
2022/03/04 06:40:50;;;;;;;49.10;27.77;;;;;;;;;;5022345;28;20045;-75
2022/03/04 06:43:16;;;;;;;53.47;28.48;;;;;;;;;;5066427;28;20040;-75
2022/03/04 06:45:43;;;;;;;55.35;26.48;;;;;;;;;;5043513;28;20049;-74
2022/03/04 06:48:10;;;;;;;47.53;24.92;;;;;;;;;;5038506;28;20045;-76
2022/03/04 06:50:36;;;;;;;51.55;27.35;;;;;;;;;;5036289;28;20051;-73
2022/03/04 06:53:03;;;;;;;53.03;27.20;;;;;;;;;;5036636;28;20037;-74
2022/03/04 06:55:29;;;;;;;55.45;27.05;;;;;;;;;;5054210;28;20132;-73
2022/03/04 06:57:55;;;;;;;48.47;26.83;;;;;;;;;;5020049;28;20044;-75
2022/03/04 07:00:24;;;;;;;52.03;26.88;;;;;;;;;;5020255;28;20041;-74
2022/03/04 07:02:50;;;;;;;54.40;27.30;;;;;;;;;;5019657;28;20049;-75
2022/03/04 07:05:16;;;;;;;56.42;28.85;;;;;;;;;;5053840;28;20062;-75
2022/03/04 07:07:42;;;;;;;46.15;24.50;;;;;;;;;;5036634;28;20128;-73
2022/03/04 07:10:08;;;;;;;53.22;27.48;;;;;;;;;;5036492;28;20041;-73
2022/03/04 07:12:35;;;;;;;57.67;27.95;;;;;;;;;;5054116;28;20041;-73
2022/03/04 07:15:01;;;;;;;49.03;26.15;;;;;;;;;;5054009;28;20379;-76
2022/03/04 07:17:27;;;;;;;46.63;26.30;;;;;;;;;;5053768;28;20482;-73
2022/03/04 07:19:53;;;;;;;48.65;26.25;;;;;;;;;;5053817;28;20045;-74
2022/03/04 07:22:19;;;;;;;43.58;26.05;;;;;;;;;;5036067;28;20045;-74
2022/03/04 07:24:45;;;;;;;48.90;27.33;;;;;;;;;;5036334;28;20048;-75
2022/03/04 07:27:11;;;;;;;46.15;26.25;;;;;;;;;;5035692;28;20102;-74
2022/03/04 07:29:38;;;;;;;47.17;25.58;;;;;;;;;;5035926;28;20479;-75
2022/03/04 07:32:04;;;;;;;46.55;26.92;;;;;;;;;;5053233;28;20633;-74
2022/03/04 07:34:30;;;;;;;43.70;26.00;;;;;;;;;;5036031;28;20041;-76
2022/03/04 07:36:56;;;;;;;39.88;22.67;;;;;;;;;;5035722;28;20371;-74
2022/03/04 07:39:22;;;;;;;49.33;26.98;;;;;;;;;;5019276;28;20087;-74
2022/03/04 07:41:50;;;;;;;40.78;24.42;;;;;;;;;;5035497;28;20128;-74
2022/03/04 07:44:16;;;;;;;46.00;25.77;;;;;;;;;;5052709;28;20044;-74
2022/03/04 07:46:43;;;;;;;47.92;26.42;;;;;;;;;;5053234;28;20106;-74
2022/03/04 07:49:09;;;;;;;40.63;25.00;;;;;;;;;;5035496;28;20072;-74
2022/03/04 07:51:35;;;;;;;43.53;27.67;;;;;;;;;;5035330;28;20087;-74
2022/03/04 07:54:01;;;;;;;42.85;23.38;;;;;;;;;;5035014;28;20194;-74
2022/03/04 07:56:27;;;;;;;43.47;25.38;;;;;;;;;;5053142;28;20052;-73
2022/03/04 07:58:54;;;;;;;40.60;23.17;;;;;;;;;;5035262;28;20040;-76
2022/03/04 08:01:20;;;;;;;45.30;25.55;;;;;;;;;;5018818;28;20041;-73
2022/03/04 08:03:46;;;;;;;46.63;25.02;;;;;;;;;;5035287;28;20053;-76
2022/03/04 08:06:12;;;;;;;41.92;23.95;;;;;;;;;;5053099;28;20551;-76
2022/03/04 08:08:39;;;;;;;39.08;22.90;;;;;;;;;;5052715;28;20048;-76
2022/03/04 08:11:05;;;;;;;46.63;25.65;;;;;;;;;;5034994;28;20398;-74
2022/03/04 08:13:31;;;;;;;42.78;25.67;;;;;;;;;;5018856;28;20055;-75
2022/03/04 08:15:58;;;;;;;45.03;25.88;;;;;;;;;;5034867;28;20048;-74
2022/03/04 08:18:24;;;;;;;43.47;25.67;;;;;;;;;;5018929;28;20045;-75
2022/03/04 08:20:50;;;;;;;44.05;26.33;;;;;;;;;;5034791;28;20194;-74
2022/03/04 08:23:17;;;;;;;34.72;21.63;;;;;;;;;;5035063;28;20396;-74
2022/03/04 08:25:44;;;;;;;36.15;22.45;;;;;;;;;;5035023;28;20517;-75
2022/03/04 08:28:10;;;;;;;33.63;20.17;;;;;;;;;;5052229;28;20163;-74
2022/03/04 08:30:36;;;;;;;37.53;20.95;;;;;;;;;;5052442;28;20045;-75
2022/03/04 08:33:02;;;;;;;34.28;20.58;;;;;;;;;;5034964;28;20463;-74
2022/03/04 08:35:28;;;;;;;31.80;21.13;;;;;;;;;;5052553;28;20489;-75
2022/03/04 08:37:55;;;;;;;32.05;20.77;;;;;;;;;;5034624;28;20064;-74
2022/03/04 08:40:21;;;;;;;33.88;20.20;;;;;;;;;;5034975;28;20119;-75
2022/03/04 08:42:47;;;;;;;34.25;21.42;;;;;;;;;;5052210;28;20482;-75
2022/03/04 08:45:14;;;;;;;36.83;21.58;;;;;;;;;;5034567;28;20441;-75
2022/03/04 08:47:43;;;;;;;34.75;21.73;;;;;;;;;;5052255;28;20056;-76
2022/03/04 08:50:10;;;;;;;36.72;22.95;;;;;;;;;;5034748;28;20052;-75
2022/03/04 08:52:36;;;;;;;33.78;21.17;;;;;;;;;;5052194;28;20048;-77
2022/03/04 08:55:03;;;;;;;32.70;21.83;;;;;;;;;;5035203;28;20637;-77
2022/03/04 08:57:30;;;;;;;35.10;21.33;;;;;;;;;;5038909;28;20132;-74
2022/03/04 08:59:57;;;;;;;33.92;21.17;;;;;;;;;;5021977;28;20053;-75
2022/03/04 09:02:23;;;;;;;30.70;20.90;;;;;;;;;;5056564;28;20359;-75
2022/03/04 09:04:50;;;;;;;30.67;20.98;;;;;;;;;;5038420;28;20436;-76
2022/03/04 09:07:17;;;;;;;32.03;20.67;;;;;;;;;;5056279;28;20120;-74
2022/03/04 09:09:43;;;;;;;32.95;20.48;;;;;;;;;;5056026;28;20239;-75
2022/03/04 09:12:10;;;;;;;31.48;19.30;;;;;;;;;;5038519;28;20059;-76
2022/03/04 09:14:36;;;;;;;30.27;19.80;;;;;;;;;;5038278;28;20052;-74
2022/03/04 09:17:03;;;;;;;31.17;20.90;;;;;;;;;;5056220;28;20052;-74
2022/03/04 09:19:30;;;;;;;29.85;19.77;;;;;;;;;;5056445;28;20128;-75
2022/03/04 09:21:57;;;;;;;29.95;19.52;;;;;;;;;;5055285;28;20479;-74
2022/03/04 09:24:23;;;;;;;28.95;20.00;;;;;;;;;;5037942;28;20080;-75
2022/03/04 09:26:49;;;;;;;32.72;20.80;;;;;;;;;;5037841;28;20037;-74
2022/03/04 09:29:16;;;;;;;27.75;19.23;;;;;;;;;;5056093;28;20048;-75
2022/03/04 09:31:42;;;;;;;31.63;20.95;;;;;;;;;;5021864;28;20036;-74
2022/03/04 09:34:08;;;;;;;32.78;21.58;;;;;;;;;;5038136;28;20041;-76
2022/03/04 09:36:34;;;;;;;33.42;21.25;;;;;;;;;;5037954;28;20037;-74
2022/03/04 09:39:01;;;;;;;32.58;20.60;;;;;;;;;;5021428;28;20128;-75
2022/03/04 09:41:27;;;;;;;33.75;22.08;;;;;;;;;;5055417;28;20055;-75
2022/03/04 09:43:57;;;;;;;31.90;20.83;;;;;;;;;;5055690;28;20094;-75
2022/03/04 09:46:24;;;;;;;29.38;21.27;;;;;;;;;;5055799;28;20114;-78
2022/03/04 09:48:50;;;;;;;32.90;20.88;;;;;;;;;;5055426;28;20040;-74
2022/03/04 09:51:17;;;;;;;29.65;19.73;;;;;;;;;;5055452;28;20089;-77
2022/03/04 09:53:44;;;;;;;30.48;20.48;;;;;;;;;;5037549;28;20052;-75
2022/03/04 09:56:10;;;;;;;28.58;20.50;;;;;;;;;;5055428;28;20123;-76
2022/03/04 09:58:39;;;;;;;26.60;18.98;;;;;;;;;;5055381;28;20052;-76
2022/03/04 10:01:12;;;;;;;28.27;19.60;;;;;;;;;;5055221;28;20079;-74
2022/03/04 10:03:42;;;;;;;29.42;20.25;;;;;;;;;;5037542;28;20470;-74
2022/03/04 10:06:08;;;;;;;28.00;20.08;;;;;;;;;;5037019;28;20142;-75
2022/03/04 10:08:38;;;;;;;31.77;20.92;;;;;;;;;;5055190;28;20045;-75
2022/03/04 10:11:04;;;;;;;31.17;19.60;;;;;;;;;;5055225;28;20048;-74
2022/03/04 10:13:48;;;;;;;29.42;19.40;;;;;;;;;;5055208;28;20275;-76
2022/03/04 10:16:22;;;;;;;29.65;20.13;;;;;;;;;;5055058;28;20502;-75
2022/03/04 10:19:04;;;;;;;28.00;19.52;;;;;;;;;;5054848;28;20156;-75
2022/03/04 10:21:49;;;;;;;29.73;19.05;;;;;;;;;;5054982;28;20128;-74
2022/03/04 10:24:17;;;;;;;29.48;18.38;;;;;;;;;;5054917;28;20036;-75
2022/03/04 10:26:43;;;;;;;28.08;19.55;;;;;;;;;;5054733;28;20037;-76
2022/03/04 10:29:29;;;;;;;29.83;19.67;;;;;;;;;;5036722;28;20401;-74
2022/03/04 10:32:14;;;;;;;31.52;20.75;;;;;;;;;;5036978;28;20063;-76
2022/03/04 10:34:49;;;;;;;25.98;18.42;;;;;;;;;;5054632;28;20053;-74
2022/03/04 10:37:16;;;;;;;27.58;19.10;;;;;;;;;;5054596;28;20053;-75
2022/03/04 10:39:59;;;;;;;26.48;18.45;;;;;;;;;;5020124;28;20075;-74
2022/03/04 10:42:38;;;;;;;27.48;18.55;;;;;;;;;;5054334;28;20052;-76
2022/03/04 10:45:07;;;;;;;28.85;20.00;;;;;;;;;;5036806;28;20036;-75
2022/03/04 10:47:44;;;;;;;27.77;19.33;;;;;;;;;;5054374;28;20045;-75
2022/03/04 10:50:11;;;;;;;29.77;19.65;;;;;;;;;;5054323;28;20124;-76
2022/03/04 10:52:53;;;;;;;28.38;19.20;;;;;;;;;;5054552;28;20047;-78
2022/03/04 10:55:26;;;;;;;27.90;19.63;;;;;;;;;;5054036;28;20521;-75
2022/03/04 10:57:53;;;;;;;29.92;19.45;;;;;;;;;;5036671;28;20056;-76
2022/03/04 11:00:33;;;;;;;28.80;19.48;;;;;;;;;;5054013;28;20048;-76
2022/03/04 11:02:59;;;;;;;26.48;19.02;;;;;;;;;;5036412;28;20520;-77
2022/03/04 11:05:25;;;;;;;28.02;18.75;;;;;;;;;;5053881;28;20087;-75
2022/03/04 11:07:52;;;;;;;25.77;18.65;;;;;;;;;;5036610;28;20048;-76
2022/03/04 11:10:21;;;;;;;24.67;17.98;;;;;;;;;;5036572;28;20099;-76
2022/03/04 11:12:50;;;;;;;23.17;17.05;;;;;;;;;;5054007;28;20044;-75
2022/03/04 11:15:16;;;;;;;24.90;18.08;;;;;;;;;;5036368;28;20514;-77
2022/03/04 11:17:43;;;;;;;25.02;17.23;;;;;;;;;;5053111;28;20045;-76
2022/03/04 11:20:10;;;;;;;22.98;16.63;;;;;;;;;;5019839;28;20489;-75
2022/03/04 11:22:39;;;;;;;22.30;15.32;;;;;;;;;;5053722;28;20429;-73
2022/03/04 11:25:07;;;;;;;22.90;15.23;;;;;;;;;;5053717;28;20076;-76
2022/03/04 11:27:39;;;;;;;23.08;14.65;;;;;;;;;;5031956;28;20457;-74
2022/03/04 11:30:06;;;;;;;19.92;14.70;;;;;;;;;;5033726;28;20391;-76
2022/03/04 11:32:32;;;;;;;21.45;15.13;;;;;;;;;;5033810;28;20041;-75
2022/03/04 11:34:58;;;;;;;24.00;15.35;;;;;;;;;;5033731;28;20050;-74
2022/03/04 11:37:24;;;;;;;20.52;14.65;;;;;;;;;;5032599;28;20041;-74
2022/03/04 11:40:33;;;;;;;20.20;14.27;;;;;;;;;;5032526;28;20530;-74
2022/03/04 11:42:53;;;;;;;23.08;14.95;;;;;;;;;;5033362;28;20132;-76
2022/03/04 11:45:28;;;;;;;19.67;13.35;;;;;;;;;;5032196;28;20045;-75
2022/03/04 11:48:01;;;;;;;20.77;14.20;;;;;;;;;;5033456;28;20099;-76
2022/03/04 11:50:29;;;;;;;18.95;13.55;;;;;;;;;;5033308;28;20045;-74
2022/03/04 11:53:10;;;;;;;19.70;13.43;;;;;;;;;;5033321;28;20053;-76
2022/03/04 11:55:36;;;;;;;20.25;12.35;;;;;;;;;;5032127;28;20466;-75
2022/03/04 11:58:04;;;;;;;18.50;12.32;;;;;;;;;;5015564;28;20095;-74
2022/03/04 12:00:31;;;;;;;18.98;12.10;;;;;;;;;;5033153;28;20084;-75
2022/03/04 12:02:58;;;;;;;17.40;11.85;;;;;;;;;;5032957;28;20133;-75
2022/03/04 12:05:26;;;;;;;16.45;11.30;;;;;;;;;;5033176;28;20128;-75
2022/03/04 12:08:06;;;;;;;16.02;10.82;;;;;;;;;;5033180;28;20051;-75
2022/03/04 12:10:37;;;;;;;15.15;11.18;;;;;;;;;;5032961;28;20037;-74
2022/03/04 12:13:05;;;;;;;16.88;10.45;;;;;;;;;;5032190;28;20129;-74
2022/03/04 12:15:38;;;;;;;17.45;12.18;;;;;;;;;;5031937;28;20050;-74
2022/03/04 12:18:25;;;;;;;16.48;10.10;;;;;;;;;;5033078;28;20042;-76
2022/03/04 12:20:57;;;;;;;16.15;10.85;;;;;;;;;;5015475;28;20207;-75
2022/03/04 12:23:36;;;;;;;17.90;11.30;;;;;;;;;;5015377;28;20106;-75
2022/03/04 12:26:02;;;;;;;18.25;11.10;;;;;;;;;;5032588;28;20088;-76
2022/03/04 12:28:28;;;;;;;15.63;9.13;;;;;;;;;;5017691;28;20049;-75
2022/03/04 12:31:06;;;;;;;15.38;10.00;;;;;;;;;;5034436;28;20049;-75
2022/03/04 12:33:32;;;;;;;15.00;9.93;;;;;;;;;;5053414;28;20043;-75
2022/03/04 12:35:58;;;;;;;17.63;9.30;;;;;;;;;;5060162;28;20033;-75
2022/03/04 12:38:47;;;;;;;13.43;9.50;;;;;;;;;;5038040;28;20049;-75
2022/03/04 12:41:17;;;;;;;16.83;9.80;;;;;;;;;;5052370;28;20143;-76
2022/03/04 12:43:46;;;;;;;16.92;10.15;;;;;;;;;;5047997;28;20075;-75
2022/03/04 12:46:13;;;;;;;15.95;10.63;;;;;;;;;;5038229;28;20070;-74
2022/03/04 12:48:39;;;;;;;15.07;10.32;;;;;;;;;;5038220;28;20123;-77
2022/03/04 12:51:17;;;;;;;16.42;10.57;;;;;;;;;;5055311;28;20128;-75
2022/03/04 12:53:43;;;;;;;15.45;10.73;;;;;;;;;;5077867;28;20127;-77
2022/03/04 12:56:11;;;;;;;15.43;10.35;;;;;;;;;;5077087;28;20044;-75
2022/03/04 12:58:37;;;;;;;15.45;10.32;;;;;;;;;;5060741;28;20048;-75
2022/03/04 13:01:03;;;;;;;13.55;9.93;;;;;;;;;;5073951;28;20041;-75
2022/03/04 13:03:31;;;;;;;14.15;10.27;;;;;;;;;;5054307;28;20127;-76
2022/03/04 13:05:58;;;;;;;13.77;9.85;;;;;;;;;;5072589;28;20049;-76
2022/03/04 13:08:24;;;;;;;14.05;10.38;;;;;;;;;;5037908;28;20131;-76
2022/03/04 13:10:50;;;;;;;14.32;9.75;;;;;;;;;;5072198;28;20119;-75
2022/03/04 13:13:17;;;;;;;16.30;9.93;;;;;;;;;;5071992;28;20045;-76
2022/03/04 13:15:47;;;;;;;15.15;10.18;;;;;;;;;;5072003;28;20151;-76
2022/03/04 13:18:13;;;;;;;15.10;9.77;;;;;;;;;;5072480;28;20043;-77
2022/03/04 13:20:39;;;;;;;14.70;9.63;;;;;;;;;;5072222;28;20162;-77
2022/03/04 13:23:06;;;;;;;14.85;9.55;;;;;;;;;;5054322;28;20040;-75
2022/03/04 13:25:33;;;;;;;14.25;9.25;;;;;;;;;;5071962;28;20036;-76
2022/03/04 13:27:59;;;;;;;18.75;9.35;;;;;;;;;;5071161;28;20053;-76
2022/03/04 13:30:25;;;;;;;14.55;9.30;;;;;;;;;;5053761;28;20524;-75
2022/03/04 13:32:55;;;;;;;15.02;8.50;;;;;;;;;;5072261;28;20127;-76
2022/03/04 13:35:24;;;;;;;12.40;9.10;;;;;;;;;;5054481;28;20474;-77
2022/03/04 13:37:51;;;;;;;13.05;9.63;;;;;;;;;;5072131;28;20456;-76
2022/03/04 13:40:21;;;;;;;14.20;9.43;;;;;;;;;;5054129;28;20048;-75
2022/03/04 13:42:52;;;;;;;15.82;9.13;;;;;;;;;;5057175;28;20102;-77
2022/03/04 13:45:32;;;;;;;15.40;9.70;;;;;;;;;;5075680;28;20043;-75
2022/03/04 13:47:59;;;;;;;14.85;10.00;;;;;;;;;;5041371;28;20040;-77
2022/03/04 13:50:31;;;;;;;14.93;9.35;;;;;;;;;;5040966;28;20382;-77
2022/03/04 13:53:03;;;;;;;13.77;9.95;;;;;;;;;;5075434;28;20127;-77
2022/03/04 13:55:34;;;;;;;15.90;10.18;;;;;;;;;;5075356;28;20083;-75
2022/03/04 13:58:01;;;;;;;;;;;;;;;;;;5058365;28;20040;-74
2022/03/04 14:00:34;;;;;;;14.95;9.23;;;;;;;;;;5075158;28;20269;-76
2022/03/04 14:03:04;;;;;;;15.02;9.48;;;;;;;;;;5075131;28;20478;-76
2022/03/04 14:05:34;;;;;;;12.45;9.07;;;;;;;;;;5057416;28;20084;-76
2022/03/04 14:08:05;;;;;;;16.98;10.13;;;;;;;;;;5075155;28;20040;-76
2022/03/04 14:10:32;;;;;;;15.00;9.87;;;;;;;;;;5075094;28;20076;-76
2022/03/04 14:12:58;;;;;;;13.40;9.20;;;;;;;;;;5057342;28;20336;-76
2022/03/04 14:15:24;;;;;;;14.77;9.38;;;;;;;;;;5075167;28;20139;-77
2022/03/04 14:17:55;;;;;;;15.48;10.27;;;;;;;;;;5075033;28;20040;-75
2022/03/04 14:20:21;;;;;;;;;;;;;;;;;;5075530;28;20047;-76